Time;durP1;ratioP1;P1;durP2;ratioP2;P2;SDS_P1;SDS_P2;PMS_P1;PMS_P2;Temp;Humidity;BMP_temperature;BMP_pressure;BME280_temperature;BME280_humidity;BME280_pressure;Samples;Min_cycle;Max_cycle;Signal;HPM_P1;HPM_P2
2022/05/30 00:00:15;;;;;;;4.67;3.50;;;9.40;1.00;;;;;;4973261;28;20405;-73
2022/05/30 00:02:40;;;;;;;5.77;3.57;;;9.30;1.00;;;;;;4972979;28;21460;-72
2022/05/30 00:05:08;;;;;;;4.43;4.03;;;9.20;1.00;;;;;;4972843;28;20413;-71
2022/05/30 00:07:35;;;;;;;4.67;4.10;;;9.20;1.00;;;;;;4973274;28;20193;-73
2022/05/30 00:10:00;;;;;;;4.43;4.03;;;9.10;1.00;;;;;;4973544;28;20776;-72
2022/05/30 00:12:26;;;;;;;4.70;3.70;;;9.20;1.00;;;;;;4973028;28;20412;-73
2022/05/30 00:14:51;;;;;;;7.37;4.77;;;9.20;1.00;;;;;;4981555;28;20178;-71
2022/05/30 00:17:17;;;;;;;7.20;3.70;;;9.20;1.00;;;;;;4992309;28;20193;-73
2022/05/30 00:19:43;;;;;;;11.53;5.30;;;9.20;1.00;;;;;;4973511;28;20623;-72
2022/05/30 00:22:14;;;;;;;6.87;4.40;;;9.20;1.00;;;;;;4972969;28;20209;-72
2022/05/30 00:24:43;;;;;;;6.80;4.07;;;9.20;1.00;;;;;;4973038;28;20162;-71
2022/05/30 00:27:10;;;;;;;8.10;4.87;;;9.10;1.00;;;;;;4972599;28;20470;-71
2022/05/30 00:29:36;;;;;;;4.10;3.60;;;9.10;1.00;;;;;;4972312;28;20443;-72
2022/05/30 00:32:02;;;;;;;5.00;4.47;;;9.10;1.00;;;;;;4972707;28;20840;-72
2022/05/30 00:34:28;;;;;;;5.87;4.63;;;9.10;1.00;;;;;;4969744;28;20453;-72
2022/05/30 00:36:54;;;;;;;8.67;4.07;;;8.70;1.00;;;;;;4972788;28;20198;-73
2022/05/30 00:39:20;;;;;;;7.20;5.07;;;8.60;1.00;;;;;;4971784;28;20686;-71
2022/05/30 00:41:46;;;;;;;6.33;4.97;;;8.60;1.00;;;;;;4972934;28;20548;-72
2022/05/30 00:44:12;;;;;;;5.00;4.50;;;8.70;1.00;;;;;;4972163;28;20281;-71
2022/05/30 00:46:38;;;;;;;4.07;3.63;;;8.60;1.00;;;;;;4972965;28;20253;-72
2022/05/30 00:49:07;;;;;;;4.63;4.23;;;8.30;99.90;;;;;;4971019;28;20409;-72
2022/05/30 00:51:41;;;;;;;6.97;4.77;;;8.30;33.70;;;;;;4972454;28;20182;-72
2022/05/30 00:54:11;;;;;;;6.63;4.57;;;8.50;1.00;;;;;;4972242;28;20420;-71
2022/05/30 00:56:43;;;;;;;7.63;4.20;;;8.60;1.00;;;;;;4972277;28;20483;-72
2022/05/30 00:59:09;;;;;;;7.07;4.60;;;8.70;1.00;;;;;;4971634;28;20492;-72
2022/05/30 01:01:35;;;;;;;5.97;4.47;;;8.70;1.00;;;;;;4972902;28;20453;-72
2022/05/30 01:06:54;;;;;;;4.87;4.37;;;7.90;99.90;;;;;;4972868;28;20472;-72
2022/05/30 01:09:27;;;;;;;5.93;4.83;;;7.80;99.90;;;;;;4971782;28;20913;-70
2022/05/30 01:12:03;;;;;;;5.63;5.13;;;8.00;99.90;;;;;;4972764;28;20471;-71
2022/05/30 01:14:35;;;;;;;8.53;4.73;;;8.00;99.90;;;;;;4976588;28;20424;-71
2022/05/30 01:17:02;;;;;;;7.60;4.70;;;7.70;1.00;;;;;;4991667;28;20993;-70
2022/05/30 01:20:07;;;;;;;10.10;4.83;;;7.80;99.90;;;;;;4990184;28;20503;-70
2022/05/30 01:22:57;;;;;;;5.70;5.10;;;7.70;1.00;;;;;;4991293;28;20397;-70
2022/05/30 01:25:32;;;;;;;4.60;4.20;;;7.50;1.00;;;;;;4991138;28;20503;-72
2022/05/30 01:28:21;;;;;;;6.83;5.37;;;7.30;99.90;;;;;;4990158;28;20435;-76
2022/05/30 01:30:47;;;;;;;6.13;5.40;;;7.20;1.00;;;;;;4991531;28;20522;-71
2022/05/30 01:33:13;;;;;;;6.47;5.87;;;7.10;1.00;;;;;;4990660;28;20602;-71
2022/05/30 01:35:39;;;;;;;11.73;5.53;;;7.00;1.00;;;;;;4989767;28;20423;-75
2022/05/30 01:38:05;;;;;;;6.10;5.50;;;7.10;1.00;;;;;;4991256;28;20684;-70
2022/05/30 01:40:31;;;;;;;5.30;4.70;;;7.20;99.90;;;;;;4991116;28;20200;-71
2022/05/30 01:42:57;;;;;;;6.97;5.03;;;7.40;99.90;;;;;;4979439;28;20181;-71
2022/05/30 01:45:24;;;;;;;6.57;4.47;;;7.50;1.00;;;;;;4970741;28;20513;-73
2022/05/30 01:47:50;;;;;;;8.40;5.47;;;7.50;99.90;;;;;;4969692;28;20228;-71
2022/05/30 01:50:16;;;;;;;5.70;4.47;;;7.60;1.00;;;;;;4970704;28;20500;-72
2022/05/30 01:52:42;;;;;;;5.10;4.33;;;7.60;1.00;;;;;;4971524;28;20177;-71
2022/05/30 01:55:08;;;;;;;6.33;5.47;;;7.60;99.90;;;;;;4971478;28;20409;-72
2022/05/30 01:57:34;;;;;;;7.23;5.37;;;7.60;67.70;;;;;;4970858;28;20192;-72
2022/05/30 01:59:59;;;;;;;7.27;5.60;;;7.50;1.00;;;;;;4971378;28;20402;-71
2022/05/30 02:02:25;;;;;;;6.80;6.20;;;7.30;1.00;;;;;;4971527;28;20229;-72
2022/05/30 02:04:52;;;;;;;9.60;5.40;;;7.30;1.00;;;;;;4970689;28;20173;-71
2022/05/30 02:07:19;;;;;;;7.77;6.60;;;7.30;1.00;;;;;;4971116;28;20269;-72
2022/05/30 02:09:44;;;;;;;6.70;6.00;;;7.30;1.00;;;;;;4971193;28;21213;-73
2022/05/30 02:12:11;;;;;;;5.93;5.43;;;7.40;1.00;;;;;;4971355;28;20475;-72
2022/05/30 02:14:37;;;;;;;6.87;6.17;;;7.50;99.90;;;;;;4976512;28;20416;-72
2022/05/30 02:17:06;;;;;;;6.57;6.00;;;7.50;99.90;;;;;;4990756;28;20446;-69
2022/05/30 02:19:38;;;;;;;10.00;6.50;;;7.40;1.00;;;;;;4989599;28;20173;-73
2022/05/30 02:22:05;;;;;;;6.90;5.77;;;7.00;99.90;;;;;;4991260;28;20810;-73
2022/05/30 02:24:31;;;;;;;6.57;5.83;;;7.00;99.90;;;;;;4990034;28;20816;-70
2022/05/30 02:26:57;;;;;;;7.13;6.33;;;7.20;1.00;;;;;;4990413;28;20973;-74
2022/05/30 02:29:23;;;;;;;8.60;7.20;;;7.20;1.00;;;;;;4989585;28;20408;-73
2022/05/30 02:31:49;;;;;;;6.97;6.37;;;7.30;1.00;;;;;;4991121;28;20196;-72
2022/05/30 02:37:00;;;;;;;7.77;6.83;;;7.30;1.00;;;;;;4950353;28;20213;-72
2022/05/30 02:39:29;;;;;;;5.80;5.03;;;7.20;1.00;;;;;;4989793;28;20511;-72
2022/05/30 02:41:55;;;;;;;7.53;6.80;;;7.20;1.00;;;;;;4987592;28;20300;-73
2022/05/30 02:44:22;;;;;;;9.87;5.10;;;7.20;1.00;;;;;;4952784;28;20583;-73
2022/05/30 02:46:51;;;;;;;8.07;5.33;;;7.20;99.90;;;;;;4971213;28;21059;-71
2022/05/30 02:49:18;;;;;;;8.33;6.10;;;7.30;99.90;;;;;;4969352;28;20432;-72
2022/05/30 02:51:44;;;;;;;6.20;5.30;;;7.40;1.00;;;;;;4970851;28;20438;-72
2022/05/30 02:54:11;;;;;;;18.50;6.37;;;7.50;1.00;;;;;;4979426;28;20440;-71
2022/05/30 02:56:38;;;;;;;11.27;6.17;;;7.50;1.00;;;;;;4976587;28;20425;-72
2022/05/30 02:59:04;;;;;;;14.73;6.23;;;7.60;1.00;;;;;;4969757;28;20575;-69
2022/05/30 03:01:31;;;;;;;16.97;5.70;;;7.50;99.90;;;;;;4970856;28;20824;-69
2022/05/30 03:03:58;;;;;;;12.47;5.80;;;7.50;1.00;;;;;;4969809;28;20413;-70
2022/05/30 03:06:25;;;;;;;10.97;5.40;;;7.60;99.90;;;;;;4970825;28;20440;-68
2022/05/30 03:08:51;;;;;;;7.37;5.50;;;7.60;99.90;;;;;;4969852;28;20501;-70
2022/05/30 03:11:17;;;;;;;15.73;8.03;;;7.60;99.90;;;;;;4971020;28;20413;-69
2022/05/30 03:13:43;;;;;;;12.23;5.30;;;7.60;99.90;;;;;;4970122;28;20174;-70
2022/05/30 03:16:09;;;;;;;11.97;5.83;;;7.60;75.30;;;;;;4988529;28;20228;-71
2022/05/30 03:18:34;;;;;;;8.73;7.17;;;7.40;99.90;;;;;;4980044;28;20413;-71
2022/05/30 03:21:00;;;;;;;7.97;6.00;;;7.00;99.90;;;;;;4970303;28;20197;-70
2022/05/30 03:23:26;;;;;;;11.43;7.20;;;6.90;1.00;;;;;;4969894;28;20585;-69
2022/05/30 03:25:51;;;;;;;10.80;8.07;;;6.90;1.00;;;;;;4970311;28;20157;-70
2022/05/30 03:28:17;;;;;;;10.00;7.20;;;7.00;1.00;;;;;;4968861;28;20630;-70
2022/05/30 03:30:44;;;;;;;9.90;7.83;;;6.90;99.90;;;;;;4970121;28;20181;-69
2022/05/30 03:33:10;;;;;;;10.47;8.20;;;7.00;96.60;;;;;;4969550;28;20190;-73
2022/05/30 03:35:37;;;;;;;13.47;7.30;;;6.90;1.00;;;;;;4969954;28;20550;-71
2022/05/30 03:38:04;;;;;;;7.87;6.43;;;7.10;1.00;;;;;;4969853;28;20906;-71
2022/05/30 03:40:30;;;;;;;8.77;5.87;;;7.20;1.00;;;;;;4969880;28;20905;-72
2022/05/30 03:42:56;;;;;;;8.00;6.00;;;7.40;1.00;;;;;;4969618;28;20440;-70
2022/05/30 03:45:22;;;;;;;6.60;5.00;;;7.40;99.90;;;;;;4970410;28;20511;-71
2022/05/30 03:47:48;;;;;;;7.63;5.37;;;7.60;99.90;;;;;;4969256;28;20193;-71
2022/05/30 03:50:21;;;;;;;11.13;6.57;;;7.90;1.00;;;;;;4969553;28;20414;-69
2022/05/30 03:52:47;;;;;;;5.60;4.87;;;8.20;1.00;;;;;;4969692;28;20905;-70
2022/05/30 03:55:15;;;;;;;5.27;4.73;;;8.30;1.00;;;;;;4970331;28;20440;-69
2022/05/30 03:57:41;;;;;;;8.17;4.97;;;8.70;1.00;;;;;;4969263;28;20264;-70
2022/05/30 04:00:14;;;;;;;5.50;4.87;;;9.00;1.00;;;;;;4969839;28;20448;-70
2022/05/30 04:02:40;;;;;;;7.60;4.90;;;9.20;99.90;;;;;;4969411;28;20496;-70
2022/05/30 04:05:08;;;;;;;4.00;3.57;;;9.20;99.90;;;;;;4969789;28;20484;-70
2022/05/30 04:07:35;;;;;;;4.40;4.10;;;9.20;1.00;;;;;;4969948;28;20556;-71
2022/05/30 04:10:01;;;;;;;7.40;3.90;;;9.40;99.90;;;;;;4973042;28;20416;-68
2022/05/30 04:12:26;;;;;;;6.23;4.80;;;9.80;99.90;;;;;;4973469;28;20413;-69
2022/05/30 04:14:54;;;;;;;10.10;4.60;;;9.70;99.90;;;;;;4981094;28;20650;-71
2022/05/30 04:17:20;;;;;;;9.10;4.37;;;9.90;99.90;;;;;;4992781;28;20229;-70
2022/05/30 04:19:45;;;;;;;5.80;4.90;;;9.80;99.90;;;;;;4992189;28;20889;-70
2022/05/30 04:22:11;;;;;;;6.40;4.30;;;9.60;99.90;;;;;;4992557;28;20209;-69
2022/05/30 04:24:36;;;;;;;6.90;5.40;;;9.60;99.90;;;;;;4992852;28;20223;-68
2022/05/30 04:27:02;;;;;;;4.47;4.07;;;10.40;99.90;;;;;;4989026;28;20292;-70
2022/05/30 04:29:32;;;;;;;4.30;3.77;;;11.00;99.90;;;;;;4949240;28;20212;-70
2022/05/30 04:32:00;;;;;;;4.30;3.87;;;11.70;99.90;;;;;;4956329;28;20538;-69
2022/05/30 04:34:25;;;;;;;4.90;4.13;;;12.60;99.90;;;;;;4961864;28;20469;-70
2022/05/30 04:36:51;;;;;;;5.00;4.17;;;13.50;99.90;;;;;;4971658;28;20455;-71
2022/05/30 04:39:17;;;;;;;5.90;4.40;;;14.00;99.90;;;;;;4971062;28;20188;-72
2022/05/30 04:41:43;;;;;;;4.20;3.73;;;13.70;99.90;;;;;;4970442;28;20198;-71
2022/05/30 04:44:08;;;;;;;7.90;3.97;;;14.30;99.90;;;;;;4968987;28;20166;-70
2022/05/30 04:46:34;;;;;;;4.07;3.67;;;14.80;99.90;;;;;;4969370;28;20721;-69
2022/05/30 04:49:00;;;;;;;5.67;4.60;;;15.60;99.90;;;;;;4966744;28;20189;-70
2022/05/30 04:51:27;;;;;;;7.33;4.10;;;16.10;99.90;;;;;;4969300;28;20215;-69
2022/05/30 04:53:52;;;;;;;6.33;4.77;;;16.60;99.90;;;;;;4969472;28;20427;-70
2022/05/30 04:56:21;;;;;;;4.73;3.70;;;17.40;99.90;;;;;;4969428;28;21085;-71
2022/05/30 04:58:47;;;;;;;7.77;5.13;;;17.80;99.90;;;;;;4967678;28;20261;-70
2022/05/30 05:01:13;;;;;;;7.70;3.83;;;18.40;99.90;;;;;;4969511;28;20457;-71
2022/05/30 05:03:40;;;;;;;5.03;4.53;;;19.10;99.90;;;;;;4968014;28;20507;-70
2022/05/30 05:06:05;;;;;;;5.13;4.30;;;19.10;99.90;;;;;;4969707;28;20206;-69
2022/05/30 05:08:47;;;;;;;4.50;3.87;;;19.80;99.90;;;;;;4968356;28;20456;-70
2022/05/30 05:11:12;;;;;;;6.93;4.70;;;20.30;98.00;;;;;;4963274;28;20323;-72
2022/05/30 05:13:38;;;;;;;14.97;4.87;;;20.80;95.40;;;;;;4968433;28;20425;-72
2022/05/30 05:16:05;;;;;;;6.50;4.30;;;21.50;93.20;;;;;;4964053;28;20217;-69
2022/05/30 05:18:30;;;;;;;5.10;4.47;;;21.90;87.50;;;;;;4967262;28;20421;-72
2022/05/30 05:20:56;;;;;;;6.43;3.53;;;21.90;79.20;;;;;;4968864;28;20460;-73
2022/05/30 05:23:22;;;;;;;7.80;4.50;;;22.60;77.40;;;;;;4968387;28;20259;-72
2022/05/30 05:25:47;;;;;;;4.50;4.10;;;22.60;68.80;;;;;;4968143;28;20631;-72
2022/05/30 05:28:13;;;;;;;4.43;4.00;;;23.00;62.70;;;;;;4967847;28;20169;-72
2022/05/30 05:30:41;;;;;;;6.83;4.00;;;23.20;58.70;;;;;;4964557;28;20189;-73
2022/05/30 05:33:06;;;;;;;6.00;4.07;;;23.70;54.40;;;;;;4967643;28;20210;-73
2022/05/30 05:35:32;;;;;;;6.10;5.60;;;24.00;50.40;;;;;;4967693;28;20804;-71
2022/05/30 05:37:58;;;;;;;8.07;5.80;;;22.90;43.00;;;;;;4959536;28;20268;-71
2022/05/30 05:40:24;;;;;;;6.20;5.43;;;22.90;40.20;;;;;;4949406;29;20602;-73
2022/05/30 05:42:49;;;;;;;10.13;6.97;;;22.40;36.30;;;;;;4959463;28;20176;-77
2022/05/30 05:45:15;;;;;;;6.17;5.67;;;21.90;32.50;;;;;;4968615;28;20497;-71
2022/05/30 05:47:40;;;;;;;7.67;5.97;;;22.30;31.50;;;;;;4967004;28;20229;-75
2022/05/30 05:50:07;;;;;;;6.53;5.90;;;22.00;29.20;;;;;;4966515;28;20192;-80
2022/05/30 05:52:32;;;;;;;8.40;6.40;;;21.20;25.30;;;;;;4968295;28;20313;-73
2022/05/30 05:54:58;;;;;;;6.90;6.30;;;19.90;22.90;;;;;;4967512;28;20564;-72
2022/05/30 05:57:27;;;;;;;6.57;5.73;;;20.00;23.80;;;;;;4955296;28;132994;-77
2022/05/30 05:59:53;;;;;;;6.40;5.90;;;21.50;27.00;;;;;;4963310;28;20472;-77
2022/05/30 06:02:19;;;;;;;6.23;5.47;;;23.10;26.90;;;;;;4968846;28;21441;-73
2022/05/30 06:04:46;;;;;;;5.90;5.40;;;23.90;25.30;;;;;;4965293;28;20531;-71
2022/05/30 06:07:12;;;;;;;7.00;5.80;;;24.50;24.60;;;;;;4967971;28;20198;-72
2022/05/30 06:09:38;;;;;;;6.77;6.17;;;24.90;21.70;;;;;;4966866;28;20487;-70
2022/05/30 06:12:07;;;;;;;6.67;5.50;;;22.60;14.80;;;;;;4968504;28;20439;-72
2022/05/30 06:14:33;;;;;;;6.80;6.07;;;22.10;14.00;;;;;;4961773;28;20521;-72
2022/05/30 06:16:59;;;;;;;8.00;5.70;;;20.80;11.30;;;;;;4946444;28;20442;-72
2022/05/30 06:19:24;;;;;;;8.23;6.10;;;21.60;13.00;;;;;;4968891;28;20197;-74
2022/05/30 06:21:50;;;;;;;15.67;7.40;;;22.00;13.10;;;;;;4984857;28;20215;-75
2022/05/30 06:24:16;;;;;;;8.30;7.53;;;22.20;12.30;;;;;;4987447;28;20169;-74
2022/05/30 06:26:45;;;;;;;8.90;6.50;;;22.50;11.70;;;;;;5001707;22;20240;-77
2022/05/30 06:29:14;;;;;;;6.40;5.43;;;22.70;10.70;;;;;;4984614;28;20416;-74
2022/05/30 06:31:40;;;;;;;30.10;8.60;;;23.60;11.30;;;;;;4986978;28;21087;-75
2022/05/30 06:34:07;;;;;;;12.03;8.07;;;23.20;9.30;;;;;;4987192;28;20483;-75
2022/05/30 06:36:34;;;;;;;7.30;5.97;;;24.00;9.40;;;;;;4989959;28;20428;-75
2022/05/30 06:38:59;;;;;;;6.13;5.60;;;24.40;8.10;;;;;;4989208;28;20450;-74
2022/05/30 06:41:28;;;;;;;6.00;5.50;;;23.90;6.10;;;;;;4989946;28;20570;-75
2022/05/30 06:43:56;;;;;;;7.30;5.33;;;23.30;3.80;;;;;;4989606;28;20260;-76
2022/05/30 06:46:23;;;;;;;5.90;5.40;;;22.10;1.10;;;;;;4991923;28;20432;-75
2022/05/30 06:48:51;;;;;;;6.20;5.60;;;20.80;1.00;;;;;;4988223;28;20869;-75
2022/05/30 06:51:18;;;;;;;7.70;5.53;;;22.00;2.70;;;;;;4989839;28;20415;-74
2022/05/30 06:53:44;;;;;;;9.10;5.20;;;22.80;3.00;;;;;;4989628;28;20474;-73
2022/05/30 06:56:22;;;;;;;6.40;5.27;;;22.80;2.20;;;;;;4989739;28;20523;-73
2022/05/30 06:58:50;;;;;;;6.30;4.80;;;23.00;1.80;;;;;;4991525;28;20419;-74
2022/05/30 07:01:17;;;;;;;5.40;5.00;;;23.70;3.20;;;;;;5009910;28;20496;-75
2022/05/30 07:03:45;;;;;;;5.33;4.87;;;23.50;1.00;;;;;;5008219;28;20410;-76
2022/05/30 07:06:17;;;;;;;5.67;5.00;;;23.60;1.00;;;;;;5009120;28;20419;-74
2022/05/30 07:08:46;;;;;;;5.53;4.80;;;24.30;1.00;;;;;;5008362;28;20457;-73
2022/05/30 07:11:13;;;;;;;5.03;4.60;;;25.40;1.00;;;;;;5009132;28;20512;-76
2022/05/30 07:13:39;;;;;;;6.73;4.73;;;25.50;1.00;;;;;;5011008;28;20473;-73
2022/05/30 07:16:05;;;;;;;5.57;5.00;;;24.80;1.00;;;;;;5010451;28;20435;-75
2022/05/30 07:18:31;;;;;;;19.83;5.07;;;24.70;1.00;;;;;;5008093;28;20248;-75
2022/05/30 07:20:59;;;;;;;5.00;4.37;;;24.60;1.00;;;;;;5010751;28;20500;-75
2022/05/30 07:23:25;;;;;;;8.50;4.90;;;25.00;1.00;;;;;;5010336;28;20403;-75
2022/05/30 07:25:57;;;;;;;4.60;4.20;;;25.10;1.00;;;;;;5010201;28;20434;-76
2022/05/30 07:28:25;;;;;;;8.00;4.60;;;24.60;1.00;;;;;;5013449;28;20415;-76
2022/05/30 07:30:51;;;;;;;5.03;4.50;;;24.70;1.00;;;;;;5017561;28;20411;-75
2022/05/30 07:33:17;;;;;;;3.73;3.43;;;25.40;1.00;;;;;;5016598;28;20900;-77
2022/05/30 07:35:44;;;;;;;4.63;3.30;;;25.80;1.00;;;;;;5017180;28;20443;-76
2022/05/30 07:38:09;;;;;;;5.00;3.40;;;24.90;1.00;;;;;;5020306;28;20419;-76
2022/05/30 07:40:35;;;;;;;3.43;3.13;;;25.10;1.00;;;;;;5020777;28;20454;-75
2022/05/30 07:43:01;;;;;;;5.90;2.93;;;25.00;1.00;;;;;;5017429;28;20528;-74
2022/05/30 07:45:27;;;;;;;4.47;3.30;;;24.80;1.00;;;;;;5024403;28;20187;-75
2022/05/30 07:47:53;;;;;;;3.63;2.50;;;25.10;1.00;;;;;;5019689;28;20539;-74
2022/05/30 07:50:19;;;;;;;4.10;2.40;;;26.00;1.00;;;;;;5014278;28;20723;-75
2022/05/30 07:52:45;;;;;;;5.10;2.80;;;25.80;1.00;;;;;;4994806;28;20396;-74
2022/05/30 07:55:11;;;;;;;3.77;2.87;;;24.70;1.00;;;;;;4993319;28;20426;-75
2022/05/30 07:57:52;;;;;;;5.20;2.70;;;24.40;1.00;;;;;;4992232;28;20235;-74
2022/05/30 08:00:22;;;;;;;3.93;3.30;;;24.60;1.00;;;;;;5007519;28;20410;-73
2022/05/30 08:02:49;;;;;;;4.77;4.37;;;24.70;1.00;;;;;;5012345;28;20392;-74
2022/05/30 08:05:16;;;;;;;4.90;3.60;;;25.30;1.00;;;;;;5013634;28;20407;-73
2022/05/30 08:07:44;;;;;;;2.97;2.50;;;25.70;1.00;;;;;;5012252;28;20415;-73
2022/05/30 08:10:11;;;;;;;5.97;2.23;;;24.70;1.00;;;;;;5012419;28;20415;-74
2022/05/30 08:12:36;;;;;;;2.90;2.63;;;23.70;1.00;;;;;;5010350;28;20922;-74
2022/05/30 08:15:03;;;;;;;3.03;2.30;;;23.50;1.00;;;;;;5012535;28;20406;-74
2022/05/30 08:17:28;;;;;;;7.10;3.90;;;24.00;1.00;;;;;;5011736;28;20258;-74
2022/05/30 08:19:54;;;;;;;6.20;3.07;;;23.80;1.00;;;;;;5011181;28;20446;-73
2022/05/30 08:22:22;;;;;;;4.37;2.80;;;25.20;1.00;;;;;;5012282;28;20326;-74
2022/05/30 08:24:48;;;;;;;2.47;2.20;;;26.10;1.00;;;;;;5012007;28;20160;-75
2022/05/30 08:27:14;;;;;;;9.27;2.40;;;25.90;1.00;;;;;;5011668;28;20637;-74
2022/05/30 08:29:42;;;;;;;3.90;2.20;;;23.90;1.00;;;;;;5011576;28;20407;-74
2022/05/30 08:32:08;;;;;;;7.60;2.63;;;23.50;1.00;;;;;;5012413;28;20502;-75
2022/05/30 08:34:35;;;;;;;2.30;2.00;;;25.30;1.00;;;;;;5010963;28;20418;-74
2022/05/30 08:37:01;;;;;;;3.90;1.83;;;26.60;1.00;;;;;;5011584;28;20813;-74
2022/05/30 08:42:11;;;;;;;2.20;2.00;;;27.40;1.00;;;;;;5007068;28;20485;-73
2022/05/30 08:44:37;;;;;;;6.43;2.50;;;23.70;1.00;;;;;;4991416;28;20408;-74
2022/05/30 08:47:41;;;;;;;5.53;2.50;;;23.20;1.00;;;;;;4990122;28;20189;-73
2022/05/30 08:50:26;;;;;;;3.63;2.33;;;24.10;1.00;;;;;;4990913;28;20176;-74
2022/05/30 08:53:10;;;;;;;4.50;2.70;;;25.60;1.00;;;;;;4992771;28;20399;-73
2022/05/30 08:55:45;;;;;;;3.73;2.07;;;25.50;1.00;;;;;;4992377;28;20415;-73
2022/05/30 08:58:29;;;;;;;2.80;2.33;;;23.60;1.00;;;;;;4991016;28;20402;-73
2022/05/30 09:01:00;;;;;;;2.43;1.90;;;22.80;1.00;;;;;;4992560;28;20462;-73
2022/05/30 09:03:36;;;;;;;3.60;2.87;;;22.20;1.00;;;;;;4993784;28;20419;-74
2022/05/30 09:06:22;;;;;;;3.83;3.10;;;21.90;1.00;;;;;;4994428;28;20529;-74
2022/05/30 09:09:18;;;;;;;3.50;2.10;;;21.60;1.00;;;;;;4990875;28;20794;-74
2022/05/30 09:11:52;;;;;;;2.67;2.20;;;22.30;1.00;;;;;;4991954;28;20432;-74
2022/05/30 09:14:36;;;;;;;4.43;2.23;;;23.60;1.00;;;;;;4991337;28;20911;-74
2022/05/30 09:17:05;;;;;;;2.73;2.10;;;24.00;1.00;;;;;;4992191;28;20512;-75
2022/05/30 09:19:31;;;;;;;3.53;2.07;;;24.40;1.00;;;;;;4998910;28;20799;-76
2022/05/30 09:22:01;;;;;;;4.77;2.20;;;24.60;1.00;;;;;;5009552;28;20454;-75
2022/05/30 09:24:32;;;;;;;9.00;2.93;;;25.50;1.00;;;;;;5011176;28;20198;-75
2022/05/30 09:27:00;;;;;;;5.47;1.60;;;25.70;1.00;;;;;;5010387;28;20508;-76
2022/05/30 09:29:44;;;;;;;5.03;2.07;;;25.80;1.00;;;;;;5009620;28;20488;-75
2022/05/30 09:32:30;;;;;;;5.30;2.47;;;25.70;1.00;;;;;;5011093;28;20396;-75
2022/05/30 09:35:21;;;;;;;7.83;2.00;;;23.20;1.00;;;;;;5010544;28;20400;-75
2022/05/30 09:37:50;;;;;;;3.77;1.87;;;22.20;1.00;;;;;;5010561;28;20527;-76
2022/05/30 09:40:18;;;;;;;15.70;3.80;;;22.30;1.00;;;;;;5010220;28;20425;-75
2022/05/30 09:42:55;;;;;;;3.10;2.33;;;24.90;1.00;;;;;;5000772;28;20420;-73
2022/05/30 09:45:29;;;;;;;3.07;1.67;;;26.40;1.00;;;;;;4991256;28;20715;-75
2022/05/30 09:48:14;;;;;;;3.40;2.20;;;27.30;1.00;;;;;;4990072;28;20427;-72
2022/05/30 09:50:46;;;;;;;3.03;1.70;;;27.50;1.00;;;;;;4991514;28;20416;-72
2022/05/30 09:53:18;;;;;;;3.30;1.90;;;27.40;1.00;;;;;;4999530;28;20513;-76
2022/05/30 09:55:49;;;;;;;3.30;2.07;;;29.30;1.00;;;;;;4993327;28;20407;-74
2022/05/30 09:58:15;;;;;;;3.10;1.40;;;30.00;1.00;;;;;;4989721;28;20511;-74
2022/05/30 10:00:48;;;;;;;5.57;1.80;;;28.80;1.00;;;;;;5013892;28;20454;-74
2022/05/30 10:03:28;;;;;;;3.33;1.83;;;26.90;1.00;;;;;;5009774;28;20168;-74
2022/05/30 10:06:16;;;;;;;13.30;2.70;;;25.20;1.00;;;;;;5009905;28;20411;-73
2022/05/30 10:08:42;;;;;;;5.57;1.83;;;24.30;1.00;;;;;;5010116;28;20394;-73
2022/05/30 10:11:09;;;;;;;3.10;1.57;;;23.40;1.00;;;;;;5010903;28;20543;-74
2022/05/30 10:13:40;;;;;;;7.60;1.97;;;23.00;1.00;;;;;;5009687;28;20407;-74
2022/05/30 10:16:12;;;;;;;6.57;2.40;;;22.90;1.00;;;;;;5010049;28;20462;-73
2022/05/30 10:18:44;;;;;;;3.20;2.60;;;22.80;1.00;;;;;;5006999;28;20422;-73
2022/05/30 10:21:28;;;;;;;2.57;1.83;;;22.60;1.00;;;;;;5002440;28;20443;-74
2022/05/30 10:30:27;;;;;;;3.53;1.83;;;19.40;1.00;;;;;;5009549;28;20757;-75
2022/05/30 10:33:05;;;;;;;4.07;2.03;;;19.20;1.00;;;;;;5009883;28;20506;-75
2022/05/30 10:35:53;;;;;;;6.20;2.07;;;19.00;1.00;;;;;;5009476;28;20474;-75
2022/05/30 10:38:19;;;;;;;3.77;2.10;;;19.50;1.00;;;;;;5010203;28;20402;-75
2022/05/30 10:41:09;;;;;;;14.73;3.53;;;19.80;1.00;;;;;;5011348;28;20454;-75
2022/05/30 10:44:06;;;;;;;8.53;2.57;;;21.10;1.00;;;;;;4992397;28;20699;-75
2022/05/30 10:47:02;;;;;;;2.20;1.60;;;23.60;1.00;;;;;;4990402;28;20507;-75
2022/05/30 10:49:35;;;;;;;2.50;1.90;;;24.20;1.00;;;;;;4988629;28;20504;-75
2022/05/30 10:52:37;;;;;;;2.53;2.03;;;22.20;1.00;;;;;;4989995;28;20931;-75
2022/05/30 10:55:11;;;;;;;3.20;1.60;;;20.80;1.00;;;;;;4989927;28;20427;-75
2022/05/30 10:58:02;;;;;;;4.33;2.00;;;20.90;1.00;;;;;;4989406;28;20431;-75
2022/05/30 11:00:36;;;;;;;11.50;2.47;;;22.20;1.00;;;;;;5000814;28;20438;-75
2022/05/30 11:03:23;;;;;;;4.73;1.90;;;22.90;1.00;;;;;;5009313;28;20409;-75
2022/05/30 11:06:07;;;;;;;3.70;1.80;;;24.10;1.00;;;;;;5009571;28;20446;-75
2022/05/30 11:08:45;;;;;;;5.60;1.80;;;25.10;1.00;;;;;;5008869;28;20482;-75
2022/05/30 11:11:35;;;;;;;6.43;1.90;;;25.90;1.00;;;;;;5009638;28;20407;-75
2022/05/30 11:14:22;;;;;;;2.13;1.57;;;26.40;1.00;;;;;;5008800;28;20402;-75
2022/05/30 11:17:05;;;;;;;1.97;1.70;;;26.50;1.00;;;;;;5009928;28;20423;-74
2022/05/30 11:19:52;;;;;;;5.50;2.20;;;24.30;1.00;;;;;;5012481;28;20422;-75
2022/05/30 11:22:42;;;;;;;2.00;1.70;;;23.20;1.00;;;;;;5014840;28;20450;-76
2022/05/30 11:25:12;;;;;;;3.73;1.60;;;22.10;1.00;;;;;;5013399;28;20404;-73
2022/05/30 11:27:41;;;;;;;6.00;1.97;;;21.70;1.00;;;;;;5012121;28;21197;-71
2022/05/30 11:30:15;;;;;;;17.50;3.33;;;21.40;1.00;;;;;;5012799;28;20918;-71
2022/05/30 11:32:49;;;;;;;8.60;2.50;;;21.60;1.00;;;;;;5012478;28;20410;-70
2022/05/30 11:35:32;;;;;;;3.63;2.17;;;21.90;1.00;;;;;;5012210;28;20976;-71
2022/05/30 11:37:58;;;;;;;5.10;1.97;;;21.00;1.00;;;;;;5012417;28;20558;-72
2022/05/30 11:41:08;;;;;;;3.70;2.17;;;20.30;1.00;;;;;;5012542;28;20828;-75
2022/05/30 11:43:52;;;;;;;3.13;2.23;;;19.60;1.00;;;;;;4977507;28;20180;-75
2022/05/30 11:46:17;;;;;;;11.60;2.87;;;19.30;1.00;;;;;;4972532;28;20490;-75
2022/05/30 11:48:52;;;;;;;5.83;2.27;;;19.40;1.00;;;;;;4972511;28;20512;-75
2022/05/30 11:51:47;;;;;;;4.67;2.20;;;20.00;1.00;;;;;;4987387;28;20515;-73
2022/05/30 11:54:15;;;;;;;3.40;2.57;;;20.50;1.00;;;;;;4982422;28;20493;-74
2022/05/30 11:57:18;;;;;;;3.17;2.00;;;20.70;1.00;;;;;;4991310;28;20431;-73
2022/05/30 12:00:07;;;;;;;10.70;2.60;;;21.10;1.00;;;;;;5001810;28;20550;-74
2022/05/30 12:03:08;;;;;;;2.57;1.80;;;21.20;1.00;;;;;;5012203;28;20450;-73
2022/05/30 12:06:02;;;;;;;7.60;2.67;;;21.10;1.00;;;;;;5010592;28;20414;-75
2022/05/30 12:09:05;;;;;;;2.57;2.17;;;21.30;1.00;;;;;;5011648;28;20388;-74
2022/05/30 12:11:46;;;;;;;4.10;2.03;;;21.70;1.00;;;;;;5012059;28;20790;-73
2022/05/30 12:14:51;;;;;;;3.70;2.33;;;22.00;1.00;;;;;;5011084;28;20407;-74
2022/05/30 12:23:47;;;;;;;3.03;2.17;;;22.10;1.00;;;;;;5009953;28;20438;-74
2022/05/30 12:26:03;;;;;;;2.63;2.00;;;20.70;1.00;;;;;;5021418;28;21419;-75
2022/05/30 12:28:29;;;;;;;5.17;2.03;;;19.70;1.00;;;;;;5019487;28;20404;-74
2022/05/30 12:31:08;;;;;;;4.40;2.50;;;19.40;1.00;;;;;;5022558;28;20235;-75
2022/05/30 12:33:34;;;;;;;6.40;2.03;;;19.30;1.00;;;;;;5022710;28;20895;-75
2022/05/30 12:36:06;;;;;;;8.50;2.63;;;19.60;1.00;;;;;;5023995;28;20434;-74
2022/05/30 12:38:51;;;;;;;4.43;2.23;;;19.80;1.00;;;;;;5021102;28;20173;-72
2022/05/30 12:41:21;;;;;;;4.03;2.30;;;20.00;1.00;;;;;;5023478;28;20472;-75
2022/05/30 12:43:49;;;;;;;4.27;2.27;;;20.20;1.00;;;;;;5022149;28;20496;-74
2022/05/30 12:46:19;;;;;;;4.33;2.63;;;20.60;1.00;;;;;;5024163;28;20969;-74
2022/05/30 12:48:52;;;;;;;9.97;2.40;;;20.50;1.00;;;;;;5013297;28;20423;-74
2022/05/30 12:51:26;;;;;;;4.20;2.30;;;20.70;1.00;;;;;;4998060;28;20416;-75
2022/05/30 12:53:54;;;;;;;3.50;1.83;;;20.30;1.00;;;;;;4991297;28;20458;-71
2022/05/30 12:56:43;;;;;;;4.30;2.50;;;20.00;1.00;;;;;;4991392;28;20428;-71
2022/05/30 12:59:19;;;;;;;3.13;2.27;;;20.10;1.00;;;;;;4988543;28;20435;-71
2022/05/30 13:01:44;;;;;;;7.63;2.40;;;20.20;1.00;;;;;;4991971;28;20550;-70
2022/05/30 13:04:21;;;;;;;5.83;2.50;;;20.50;1.00;;;;;;4990897;28;20507;-72
2022/05/30 13:06:56;;;;;;;3.40;2.10;;;20.80;1.00;;;;;;4991872;28;20205;-72
2022/05/30 13:09:30;;;;;;;7.37;2.37;;;20.50;1.00;;;;;;4989150;28;20419;-71
2022/05/30 13:12:11;;;;;;;17.13;2.90;;;20.40;1.00;;;;;;4991307;28;20475;-71
2022/05/30 13:14:36;;;;;;;5.40;2.27;;;20.30;1.00;;;;;;4990047;28;20414;-71
2022/05/30 13:17:32;;;;;;;9.20;2.40;;;19.90;1.00;;;;;;4991163;28;20451;-71
2022/05/30 13:19:58;;;;;;;6.03;2.67;;;19.60;1.00;;;;;;4989499;28;20185;-71
2022/05/30 13:22:31;;;;;;;5.10;2.30;;;19.70;1.00;;;;;;4995063;28;20468;-72
2022/05/30 13:24:57;;;;;;;2.20;1.97;;;19.50;1.00;;;;;;4979530;28;20220;-71
2022/05/30 13:27:26;;;;;;;6.57;1.97;;;19.50;1.00;;;;;;4980521;28;20458;-71
2022/05/30 13:29:51;;;;;;;3.83;1.70;;;19.80;1.00;;;;;;4980294;28;20178;-71
2022/05/30 13:32:21;;;;;;;3.30;2.10;;;19.60;1.00;;;;;;4979224;28;20827;-71
2022/05/30 13:34:54;;;;;;;2.57;1.80;;;19.60;1.00;;;;;;4979572;28;20196;-71